createdAt,value
2019-02-21T00:02:00.728Z,101465
2019-02-21T00:07:24.313Z,101468
2019-02-21T00:12:47.003Z,101471
2019-02-21T00:18:10.608Z,101477
2019-02-21T00:23:33.578Z,101474
2019-02-21T00:28:56.222Z,101473
2019-02-21T00:34:18.915Z,101474
2019-02-21T00:39:41.698Z,101483
2019-02-21T00:45:04.361Z,101474
2019-02-21T00:50:27.121Z,101473
2019-02-21T00:55:49.831Z,101479
2019-02-21T01:01:12.597Z,101477
2019-02-21T01:06:35.461Z,101482
2019-02-21T01:11:58.172Z,101487
2019-02-21T01:17:20.851Z,101495
2019-02-21T01:22:43.685Z,101495
2019-02-21T01:28:06.343Z,101493
2019-02-21T01:33:29.040Z,101499
2019-02-21T01:38:51.739Z,101506
2019-02-21T01:44:14.401Z,101509
2019-02-21T01:49:37.465Z,101510
2019-02-21T01:55:00.325Z,101509
2019-02-21T02:00:23.053Z,101512
2019-02-21T02:05:45.793Z,101511
2019-02-21T02:11:08.841Z,101514
2019-02-21T02:16:31.472Z,101523
2019-02-21T02:21:54.350Z,101516
2019-02-21T02:27:17.121Z,101521
2019-02-21T02:32:39.922Z,101510
2019-02-21T02:38:02.658Z,101516
2019-02-21T02:43:25.400Z,101515
2019-02-21T02:48:48.166Z,101509
2019-02-21T02:54:10.939Z,101510
2019-02-21T02:59:40.516Z,101515
2019-02-21T03:04:57.336Z,101513
2019-02-21T03:10:20.106Z,101512
2019-02-21T03:15:42.929Z,101511
2019-02-21T03:21:05.600Z,101518
2019-02-21T03:26:28.296Z,101512
2019-02-21T03:31:54.897Z,101516
2019-02-21T03:37:14.819Z,101514
2019-02-21T03:42:38.580Z,101515
2019-02-21T03:48:01.264Z,101502
2019-02-21T03:53:23.989Z,101505
2019-02-21T03:58:46.983Z,101510
2019-02-21T04:04:09.654Z,101513
2019-02-21T04:09:32.570Z,101520
2019-02-21T04:14:55.337Z,101515
2019-02-21T04:20:18.257Z,101514
2019-02-21T04:25:41.587Z,101513
2019-02-21T04:31:04.262Z,101509
2019-02-21T04:36:27.773Z,101512
2019-02-21T04:41:50.594Z,101505
2019-02-21T04:47:13.308Z,101507
2019-02-21T04:52:36.075Z,101499
2019-02-21T04:57:58.953Z,101494
2019-02-21T05:03:21.856Z,101499
2019-02-21T05:08:44.698Z,101498
2019-02-21T05:14:07.374Z,101503
2019-02-21T05:19:30.185Z,101498
2019-02-21T05:24:52.886Z,101503
2019-02-21T05:30:15.786Z,101504
2019-02-21T05:35:38.485Z,101507
2019-02-21T05:41:04.124Z,101505
2019-02-21T05:46:25.211Z,101506
2019-02-21T05:51:47.922Z,101503
2019-02-21T05:57:10.682Z,101503
2019-02-21T06:02:33.380Z,101512
2019-02-21T06:07:56.048Z,101510
2019-02-21T06:13:18.843Z,101512
2019-02-21T06:18:41.645Z,101513
2019-02-21T06:24:04.495Z,101514
2019-02-21T06:29:27.266Z,101520
2019-02-21T06:34:52.311Z,101522
2019-02-21T06:40:13.910Z,101516
2019-02-21T06:45:36.734Z,101524
2019-02-21T06:50:59.600Z,101529
2019-02-21T06:56:22.392Z,101532
2019-02-21T07:01:45.163Z,101527
2019-02-21T07:07:07.924Z,101541
2019-02-21T07:12:30.644Z,101551
2019-02-21T07:17:53.369Z,101559
2019-02-21T07:23:16.042Z,101558
2019-02-21T07:28:41.624Z,101563
2019-02-21T07:34:02.551Z,101561
2019-02-21T07:39:35.480Z,101563
2019-02-21T07:44:49.254Z,101564
2019-02-21T07:50:12.022Z,101570
2019-02-21T07:55:34.761Z,101580
2019-02-21T08:00:57.470Z,101582
2019-02-21T08:06:20.367Z,101586
2019-02-21T08:11:44.160Z,101584
2019-02-21T08:17:06.974Z,101589
2019-02-21T08:22:29.838Z,101578
2019-02-21T08:27:53.767Z,101583
2019-02-21T08:33:19.893Z,101590
2019-02-21T08:38:42.948Z,101600
2019-02-21T08:44:05.985Z,101603
2019-02-21T08:49:38.481Z,101616
2019-02-21T08:55:01.492Z,101618
2019-02-21T09:00:24.600Z,101619
2019-02-21T09:05:48.735Z,101621
2019-02-21T09:11:11.673Z,101618
2019-02-21T09:16:34.669Z,101615
2019-02-21T09:21:57.707Z,101624
2019-02-21T09:27:20.688Z,101632
2019-02-21T09:32:43.750Z,101632
2019-02-21T09:38:06.753Z,101630
2019-02-21T09:43:29.448Z,101635
2019-02-21T09:48:52.250Z,101636
2019-02-21T09:54:14.965Z,101630
2019-02-21T09:59:37.653Z,101626
2019-02-21T10:05:04.790Z,101627
2019-02-21T10:10:24.164Z,101624
2019-02-21T10:15:47.187Z,101616
2019-02-21T10:21:10.699Z,101618
2019-02-21T10:26:33.446Z,101623
2019-02-21T10:31:56.323Z,101623
2019-02-21T10:37:25.953Z,101628
2019-02-21T10:42:48.714Z,101626
2019-02-21T10:48:12.453Z,101623
2019-02-21T10:53:35.130Z,101623
2019-02-21T10:58:57.914Z,101613
2019-02-21T11:04:20.615Z,101610
2019-02-21T11:09:44.024Z,101606
2019-02-21T11:15:06.851Z,101610
2019-02-21T11:20:29.526Z,101604
2019-02-21T11:25:52.190Z,101605
2019-02-21T11:31:14.852Z,101606
2019-02-21T11:36:37.631Z,101602
2019-02-21T11:42:00.349Z,101605
2019-02-21T11:47:23.105Z,101594
2019-02-21T11:52:46.654Z,101586
2019-02-21T11:58:09.355Z,101592
2019-02-21T12:03:32.021Z,101598
2019-02-21T12:08:54.758Z,101602
2019-02-21T12:14:18.546Z,101602
2019-02-21T12:19:41.345Z,101599
2019-02-21T12:25:04.082Z,101600
2019-02-21T12:30:27.555Z,101605
2019-02-21T12:35:51.341Z,101597
2019-02-21T12:41:14.154Z,101605
2019-02-21T12:46:36.950Z,101598
2019-02-21T12:51:59.700Z,101610
2019-02-21T12:57:22.826Z,101601
2019-02-21T13:02:45.619Z,101607
2019-02-21T13:08:08.431Z,101600
2019-02-21T13:13:31.158Z,101608
2019-02-21T13:18:54.652Z,101598
2019-02-21T13:24:18.043Z,101599
2019-02-21T13:29:41.672Z,101600
2019-02-21T13:35:04.436Z,101595
2019-02-21T13:40:27.255Z,101585
2019-02-21T13:45:49.940Z,101588
2019-02-21T13:51:11.747Z,101593
2019-02-21T13:56:34.784Z,101590
2019-02-21T14:01:57.514Z,101594
2019-02-21T14:07:20.339Z,101593
2019-02-21T14:12:43.226Z,101594
2019-02-21T14:18:05.885Z,101596
2019-02-21T14:23:28.599Z,101596
2019-02-21T14:28:51.369Z,101602
2019-02-21T14:34:15.133Z,101596
2019-02-21T14:39:37.989Z,101597
2019-02-21T14:45:00.685Z,101602
2019-02-21T14:50:24.156Z,101609
2019-02-21T14:55:46.849Z,101615
2019-02-21T15:01:09.516Z,101624
2019-02-21T15:06:32.213Z,101618
2019-02-21T15:11:54.947Z,101627
2019-02-21T15:17:18.726Z,101623
2019-02-21T15:22:41.288Z,101628
2019-02-21T15:28:04.228Z,101624
2019-02-21T15:33:27.324Z,101640
2019-02-21T15:38:50.163Z,101642
2019-02-21T15:44:13.629Z,101641
2019-02-21T15:49:36.319Z,101641
2019-02-21T15:54:59.122Z,101639
2019-02-21T16:00:22.877Z,101647
2019-02-21T16:05:45.672Z,101645
2019-02-21T16:11:08.359Z,101654
2019-02-21T16:16:31.079Z,101651
2019-02-21T16:21:53.839Z,101646
2019-02-21T16:27:16.934Z,101651
2019-02-21T16:32:39.921Z,101654
2019-02-21T16:38:03.004Z,101657
2019-02-21T16:43:25.861Z,101660
2019-02-21T16:48:48.647Z,101664
2019-02-21T16:54:11.367Z,101665
2019-02-21T16:59:34.092Z,101669
2019-02-21T17:04:56.846Z,101674
2019-02-21T17:10:20.535Z,101670
2019-02-21T17:15:43.337Z,101685
2019-02-21T17:21:06.044Z,101697
2019-02-21T17:26:30.880Z,101706
2019-02-21T17:31:51.514Z,101706
2019-02-21T17:37:24.300Z,101716
2019-02-21T17:42:38.022Z,101717
2019-02-21T17:48:00.785Z,101725
2019-02-21T17:53:23.454Z,101727
2019-02-21T17:58:46.229Z,101737
2019-02-21T18:04:09.338Z,101740
2019-02-21T18:09:32.120Z,101742
2019-02-21T18:14:54.774Z,101745
2019-02-21T18:20:17.515Z,101757
2019-02-21T18:25:40.262Z,101759
2019-02-21T18:31:03.172Z,101770
2019-02-21T18:36:26.968Z,101771
2019-02-21T18:41:50.102Z,101775
2019-02-21T18:47:13.069Z,101775
2019-02-21T18:52:36.062Z,101783
2019-02-21T18:57:58.807Z,101788
2019-02-21T19:03:21.564Z,101792
2019-02-21T19:08:44.702Z,101793
2019-02-21T19:14:07.626Z,101796
2019-02-21T19:19:30.925Z,101803
2019-02-21T19:24:53.689Z,101808
2019-02-21T19:30:16.649Z,101815
2019-02-21T19:35:39.802Z,101832
2019-02-21T19:41:02.797Z,101831
2019-02-21T19:46:25.700Z,101835
2019-02-21T19:51:48.878Z,101856
2019-02-21T19:57:11.938Z,101858
2019-02-21T20:02:34.897Z,101861
2019-02-21T20:08:08.053Z,101871
2019-02-21T20:13:22.063Z,101886
2019-02-21T20:18:45.235Z,101883
2019-02-21T20:24:08.838Z,101888
2019-02-21T20:29:31.041Z,101894
2019-02-21T20:34:54.290Z,101897
2019-02-21T20:40:17.706Z,101906
2019-02-21T20:45:40.868Z,101902
2019-02-21T20:51:05.127Z,101910
2019-02-21T20:56:28.152Z,101914
2019-02-21T21:01:50.962Z,101910
2019-02-21T21:07:24.511Z,101908
2019-02-21T21:12:38.258Z,101918
2019-02-21T21:18:01.594Z,101921
2019-02-21T21:23:24.802Z,101923
2019-02-21T21:28:47.706Z,101935
2019-02-21T21:34:10.517Z,101930
2019-02-21T21:39:33.464Z,101938
2019-02-21T21:44:57.654Z,101950
2019-02-21T21:50:20.608Z,101955
2019-02-21T21:55:43.489Z,101961
2019-02-21T22:01:06.235Z,101966
2019-02-21T22:06:29.381Z,101964
2019-02-21T22:11:52.013Z,101965
2019-02-21T22:17:15.639Z,101965
2019-02-21T22:22:39.184Z,101978
2019-02-21T22:28:03.438Z,101987
2019-02-21T22:33:27.013Z,101988
2019-02-21T22:38:49.734Z,101991
2019-02-21T22:44:12.648Z,101993
2019-02-21T22:49:35.377Z,102001
2019-02-21T22:55:08.972Z,101999
2019-02-21T23:00:22.728Z,101998
2019-02-21T23:05:46.599Z,102006
2019-02-21T23:11:10.048Z,102008
2019-02-21T23:16:32.761Z,102019
2019-02-21T23:21:55.503Z,102022
2019-02-21T23:27:18.305Z,102029
2019-02-21T23:32:41.191Z,102033
2019-02-21T23:38:03.982Z,102040
2019-02-21T23:43:27.857Z,102036
2019-02-21T23:48:50.763Z,102032
2019-02-21T23:54:13.832Z,102044
2019-02-21T23:59:36.600Z,102046
